sensor_id;sensor_type;location;lat;lon;timestamp;temperature;humidity
11009;DHT22;5557;51.670;7.788;2024-01-15T00:00:38;0.80;99.90
11009;DHT22;5557;51.670;7.788;2024-01-15T00:03:06;0.80;99.90
11009;DHT22;5557;51.670;7.788;2024-01-15T00:05:33;0.90;99.90
11009;DHT22;5557;51.670;7.788;2024-01-15T00:08:00;0.90;99.90
11009;DHT22;5557;51.670;7.788;2024-01-15T00:10:27;0.90;99.90
11009;DHT22;5557;51.670;7.788;2024-01-15T00:12:54;0.90;99.90
11009;DHT22;5557;51.670;7.788;2024-01-15T00:15:21;0.90;99.90
11009;DHT22;5557;51.670;7.788;2024-01-15T00:17:49;0.90;99.90
11009;DHT22;5557;51.670;7.788;2024-01-15T00:20:16;0.90;99.90
11009;DHT22;5557;51.670;7.788;2024-01-15T00:22:43;0.90;99.90
11009;DHT22;5557;51.670;7.788;2024-01-15T00:25:10;1.00;99.90
11009;DHT22;5557;51.670;7.788;2024-01-15T00:27:37;1.00;99.90
11009;DHT22;5557;51.670;7.788;2024-01-15T00:30:05;1.00;99.90
11009;DHT22;5557;51.670;7.788;2024-01-15T00:32:33;1.00;99.90
11009;DHT22;5557;51.670;7.788;2024-01-15T00:35:01;1.00;99.90
11009;DHT22;5557;51.670;7.788;2024-01-15T00:37:28;1.00;99.90
11009;DHT22;5557;51.670;7.788;2024-01-15T00:39:55;1.00;99.90
11009;DHT22;5557;51.670;7.788;2024-01-15T00:42:22;1.00;99.90
11009;DHT22;5557;51.670;7.788;2024-01-15T00:44:49;1.00;99.90
11009;DHT22;5557;51.670;7.788;2024-01-15T00:47:18;1.00;99.90
11009;DHT22;5557;51.670;7.788;2024-01-15T00:49:45;1.00;99.90
11009;DHT22;5557;51.670;7.788;2024-01-15T00:52:12;1.00;99.90
11009;DHT22;5557;51.670;7.788;2024-01-15T00:54:39;1.10;99.90
11009;DHT22;5557;51.670;7.788;2024-01-15T00:57:06;1.10;99.90
11009;DHT22;5557;51.670;7.788;2024-01-15T00:59:33;1.00;99.90
11009;DHT22;5557;51.670;7.788;2024-01-15T01:02:01;1.00;99.90
11009;DHT22;5557;51.670;7.788;2024-01-15T01:04:29;1.00;99.90
11009;DHT22;5557;51.670;7.788;2024-01-15T01:06:56;1.00;99.90
11009;DHT22;5557;51.670;7.788;2024-01-15T01:09:23;1.00;99.90
11009;DHT22;5557;51.670;7.788;2024-01-15T01:11:51;1.00;99.90
11009;DHT22;5557;51.670;7.788;2024-01-15T01:14:18;1.10;99.90
11009;DHT22;5557;51.670;7.788;2024-01-15T01:16:45;1.10;99.90
11009;DHT22;5557;51.670;7.788;2024-01-15T01:19:12;1.10;99.90
11009;DHT22;5557;51.670;7.788;2024-01-15T01:21:39;1.00;99.90
11009;DHT22;5557;51.670;7.788;2024-01-15T01:24:06;1.10;99.90
11009;DHT22;5557;51.670;7.788;2024-01-15T01:26:33;1.10;99.90
11009;DHT22;5557;51.670;7.788;2024-01-15T01:29:00;1.10;99.90
11009;DHT22;5557;51.670;7.788;2024-01-15T01:31:28;1.10;99.90
11009;DHT22;5557;51.670;7.788;2024-01-15T01:34:02;1.10;99.90
11009;DHT22;5557;51.670;7.788;2024-01-15T01:36:31;1.10;99.90
11009;DHT22;5557;51.670;7.788;2024-01-15T01:38:59;1.10;99.90
11009;DHT22;5557;51.670;7.788;2024-01-15T01:41:26;1.10;99.90
11009;DHT22;5557;51.670;7.788;2024-01-15T01:43:53;1.10;99.90
11009;DHT22;5557;51.670;7.788;2024-01-15T01:46:20;1.10;99.90
11009;DHT22;5557;51.670;7.788;2024-01-15T01:48:47;1.10;99.90
11009;DHT22;5557;51.670;7.788;2024-01-15T01:51:14;1.10;99.90
11009;DHT22;5557;51.670;7.788;2024-01-15T01:53:44;1.10;99.90
11009;DHT22;5557;51.670;7.788;2024-01-15T01:56:13;1.10;99.90
11009;DHT22;5557;51.670;7.788;2024-01-15T01:58:40;1.10;99.90
11009;DHT22;5557;51.670;7.788;2024-01-15T02:01:07;1.10;99.90
11009;DHT22;5557;51.670;7.788;2024-01-15T02:03:35;1.10;99.90
11009;DHT22;5557;51.670;7.788;2024-01-15T02:06:03;1.10;99.90
11009;DHT22;5557;51.670;7.788;2024-01-15T02:08:30;1.10;99.90
11009;DHT22;5557;51.670;7.788;2024-01-15T02:10:57;1.10;99.90
11009;DHT22;5557;51.670;7.788;2024-01-15T02:13:24;1.10;99.90
11009;DHT22;5557;51.670;7.788;2024-01-15T02:15:51;1.10;99.90
11009;DHT22;5557;51.670;7.788;2024-01-15T02:18:18;1.00;99.90
11009;DHT22;5557;51.670;7.788;2024-01-15T02:20:45;1.00;99.90
11009;DHT22;5557;51.670;7.788;2024-01-15T02:23:13;1.00;99.90
11009;DHT22;5557;51.670;7.788;2024-01-15T02:25:45;1.10;99.90
11009;DHT22;5557;51.670;7.788;2024-01-15T02:28:17;1.10;99.90
11009;DHT22;5557;51.670;7.788;2024-01-15T02:30:47;1.10;99.90
11009;DHT22;5557;51.670;7.788;2024-01-15T02:33:14;1.10;99.90
11009;DHT22;5557;51.670;7.788;2024-01-15T02:35:45;1.10;99.90
11009;DHT22;5557;51.670;7.788;2024-01-15T02:38:13;1.20;99.90
11009;DHT22;5557;51.670;7.788;2024-01-15T02:40:40;1.20;99.90
11009;DHT22;5557;51.670;7.788;2024-01-15T02:43:07;1.20;99.90
11009;DHT22;5557;51.670;7.788;2024-01-15T02:45:34;1.20;99.90
11009;DHT22;5557;51.670;7.788;2024-01-15T02:48:01;1.20;99.90
11009;DHT22;5557;51.670;7.788;2024-01-15T02:50:28;1.20;99.90
11009;DHT22;5557;51.670;7.788;2024-01-15T02:52:55;1.20;99.90
11009;DHT22;5557;51.670;7.788;2024-01-15T02:55:22;1.20;99.90
11009;DHT22;5557;51.670;7.788;2024-01-15T02:57:49;1.20;99.90
11009;DHT22;5557;51.670;7.788;2024-01-15T03:00:16;1.20;99.90
11009;DHT22;5557;51.670;7.788;2024-01-15T03:02:44;1.20;99.90
11009;DHT22;5557;51.670;7.788;2024-01-15T03:05:14;1.20;99.90
11009;DHT22;5557;51.670;7.788;2024-01-15T03:07:42;1.20;99.90
11009;DHT22;5557;51.670;7.788;2024-01-15T03:10:09;1.20;99.90
11009;DHT22;5557;51.670;7.788;2024-01-15T03:12:36;1.10;99.90
11009;DHT22;5557;51.670;7.788;2024-01-15T03:15:04;1.10;99.90
11009;DHT22;5557;51.670;7.788;2024-01-15T03:17:31;1.00;99.90
11009;DHT22;5557;51.670;7.788;2024-01-15T03:19:58;1.00;99.90
11009;DHT22;5557;51.670;7.788;2024-01-15T03:22:25;1.00;99.90
11009;DHT22;5557;51.670;7.788;2024-01-15T03:24:53;1.00;99.90
11009;DHT22;5557;51.670;7.788;2024-01-15T03:27:20;1.00;99.90
11009;DHT22;5557;51.670;7.788;2024-01-15T03:29:47;1.10;99.90
11009;DHT22;5557;51.670;7.788;2024-01-15T03:32:14;1.10;99.90
11009;DHT22;5557;51.670;7.788;2024-01-15T03:34:46;1.10;99.90
11009;DHT22;5557;51.670;7.788;2024-01-15T03:37:14;1.10;99.90
11009;DHT22;5557;51.670;7.788;2024-01-15T03:39:41;1.10;99.90
11009;DHT22;5557;51.670;7.788;2024-01-15T03:42:08;1.10;99.90
11009;DHT22;5557;51.670;7.788;2024-01-15T03:44:37;1.10;99.90
11009;DHT22;5557;51.670;7.788;2024-01-15T03:47:04;1.10;99.90
11009;DHT22;5557;51.670;7.788;2024-01-15T03:49:31;1.20;99.90
11009;DHT22;5557;51.670;7.788;2024-01-15T03:51:58;1.10;99.90
11009;DHT22;5557;51.670;7.788;2024-01-15T03:54:27;1.10;99.90
11009;DHT22;5557;51.670;7.788;2024-01-15T03:56:54;1.10;99.90
11009;DHT22;5557;51.670;7.788;2024-01-15T03:59:21;1.10;99.90
11009;DHT22;5557;51.670;7.788;2024-01-15T04:01:51;1.00;99.90
11009;DHT22;5557;51.670;7.788;2024-01-15T04:04:18;1.00;99.90
11009;DHT22;5557;51.670;7.788;2024-01-15T04:06:45;1.00;99.90
11009;DHT22;5557;51.670;7.788;2024-01-15T04:09:15;0.90;99.90
11009;DHT22;5557;51.670;7.788;2024-01-15T04:11:42;0.90;99.90
11009;DHT22;5557;51.670;7.788;2024-01-15T04:14:09;0.90;99.90
11009;DHT22;5557;51.670;7.788;2024-01-15T04:16:37;1.00;99.90
11009;DHT22;5557;51.670;7.788;2024-01-15T04:19:04;1.00;99.90
11009;DHT22;5557;51.670;7.788;2024-01-15T04:21:33;1.00;99.90
11009;DHT22;5557;51.670;7.788;2024-01-15T04:24:00;1.00;99.90
11009;DHT22;5557;51.670;7.788;2024-01-15T04:26:27;1.10;99.90
11009;DHT22;5557;51.670;7.788;2024-01-15T04:28:56;1.10;99.90
11009;DHT22;5557;51.670;7.788;2024-01-15T04:31:26;1.10;99.90
11009;DHT22;5557;51.670;7.788;2024-01-15T04:33:54;1.10;99.90
11009;DHT22;5557;51.670;7.788;2024-01-15T04:36:25;1.10;99.90
11009;DHT22;5557;51.670;7.788;2024-01-15T04:38:52;1.10;99.90
11009;DHT22;5557;51.670;7.788;2024-01-15T04:41:22;1.20;99.90
11009;DHT22;5557;51.670;7.788;2024-01-15T04:43:49;1.20;99.90
11009;DHT22;5557;51.670;7.788;2024-01-15T04:46:18;1.20;99.90
11009;DHT22;5557;51.670;7.788;2024-01-15T04:48:48;1.20;99.90
11009;DHT22;5557;51.670;7.788;2024-01-15T04:51:18;1.20;99.90
11009;DHT22;5557;51.670;7.788;2024-01-15T04:53:45;1.20;99.90
11009;DHT22;5557;51.670;7.788;2024-01-15T04:56:12;1.20;99.90
11009;DHT22;5557;51.670;7.788;2024-01-15T04:58:39;1.20;99.90
11009;DHT22;5557;51.670;7.788;2024-01-15T05:01:09;1.20;99.90
11009;DHT22;5557;51.670;7.788;2024-01-15T05:03:39;1.20;99.90
11009;DHT22;5557;51.670;7.788;2024-01-15T05:06:08;1.30;99.90
11009;DHT22;5557;51.670;7.788;2024-01-15T05:08:38;1.30;99.90
11009;DHT22;5557;51.670;7.788;2024-01-15T05:11:05;1.30;99.90
11009;DHT22;5557;51.670;7.788;2024-01-15T05:13:32;1.30;99.90
11009;DHT22;5557;51.670;7.788;2024-01-15T05:15:59;1.30;99.90
11009;DHT22;5557;51.670;7.788;2024-01-15T05:18:26;1.30;99.90
11009;DHT22;5557;51.670;7.788;2024-01-15T05:20:58;1.20;99.90
11009;DHT22;5557;51.670;7.788;2024-01-15T05:23:25;1.20;99.90
11009;DHT22;5557;51.670;7.788;2024-01-15T05:25:52;1.20;99.90
11009;DHT22;5557;51.670;7.788;2024-01-15T05:28:20;1.20;99.90
11009;DHT22;5557;51.670;7.788;2024-01-15T05:30:47;1.20;99.90
11009;DHT22;5557;51.670;7.788;2024-01-15T05:33:15;1.20;99.90
11009;DHT22;5557;51.670;7.788;2024-01-15T05:35:45;1.20;99.90
11009;DHT22;5557;51.670;7.788;2024-01-15T05:38:13;1.20;99.90
11009;DHT22;5557;51.670;7.788;2024-01-15T05:40:40;1.30;99.90
11009;DHT22;5557;51.670;7.788;2024-01-15T05:43:07;1.30;99.90
11009;DHT22;5557;51.670;7.788;2024-01-15T05:45:38;1.30;99.90
11009;DHT22;5557;51.670;7.788;2024-01-15T05:48:05;1.40;99.90
11009;DHT22;5557;51.670;7.788;2024-01-15T05:50:32;1.40;99.90
11009;DHT22;5557;51.670;7.788;2024-01-15T05:52:59;1.40;99.90
11009;DHT22;5557;51.670;7.788;2024-01-15T05:55:26;1.40;99.90
11009;DHT22;5557;51.670;7.788;2024-01-15T05:57:53;1.40;99.90
11009;DHT22;5557;51.670;7.788;2024-01-15T06:00:20;1.40;99.90
11009;DHT22;5557;51.670;7.788;2024-01-15T06:02:47;1.40;99.90
11009;DHT22;5557;51.670;7.788;2024-01-15T06:05:14;1.40;99.90
11009;DHT22;5557;51.670;7.788;2024-01-15T06:07:41;1.40;99.90
11009;DHT22;5557;51.670;7.788;2024-01-15T06:10:08;1.50;99.90
11009;DHT22;5557;51.670;7.788;2024-01-15T06:12:35;1.50;99.90
11009;DHT22;5557;51.670;7.788;2024-01-15T06:15:03;1.50;99.90
11009;DHT22;5557;51.670;7.788;2024-01-15T06:17:30;1.50;99.90
11009;DHT22;5557;51.670;7.788;2024-01-15T06:19:58;1.50;99.90
11009;DHT22;5557;51.670;7.788;2024-01-15T06:22:25;1.50;99.90
11009;DHT22;5557;51.670;7.788;2024-01-15T06:24:52;1.50;99.90
11009;DHT22;5557;51.670;7.788;2024-01-15T06:27:20;1.50;99.90
11009;DHT22;5557;51.670;7.788;2024-01-15T06:29:47;1.50;99.50
11009;DHT22;5557;51.670;7.788;2024-01-15T06:32:16;1.50;99.50
11009;DHT22;5557;51.670;7.788;2024-01-15T06:34:44;1.50;99.40
11009;DHT22;5557;51.670;7.788;2024-01-15T06:37:12;1.50;99.60
11009;DHT22;5557;51.670;7.788;2024-01-15T06:39:39;1.50;99.90
11009;DHT22;5557;51.670;7.788;2024-01-15T06:42:06;1.50;99.90
11009;DHT22;5557;51.670;7.788;2024-01-15T06:44:33;1.50;99.90
11009;DHT22;5557;51.670;7.788;2024-01-15T06:47:00;1.50;99.90
11009;DHT22;5557;51.670;7.788;2024-01-15T06:49:29;1.50;99.90
11009;DHT22;5557;51.670;7.788;2024-01-15T06:51:57;1.60;99.90
11009;DHT22;5557;51.670;7.788;2024-01-15T06:54:24;1.60;99.80
11009;DHT22;5557;51.670;7.788;2024-01-15T06:56:52;1.60;99.90
11009;DHT22;5557;51.670;7.788;2024-01-15T06:59:19;1.60;99.80
11009;DHT22;5557;51.670;7.788;2024-01-15T07:01:46;1.60;99.50
11009;DHT22;5557;51.670;7.788;2024-01-15T07:04:13;1.60;99.40
11009;DHT22;5557;51.670;7.788;2024-01-15T07:06:40;1.60;99.20
11009;DHT22;5557;51.670;7.788;2024-01-15T07:09:07;1.60;99.00
11009;DHT22;5557;51.670;7.788;2024-01-15T07:11:35;1.60;98.70
11009;DHT22;5557;51.670;7.788;2024-01-15T07:14:02;1.60;98.60
11009;DHT22;5557;51.670;7.788;2024-01-15T07:16:30;1.60;98.50
11009;DHT22;5557;51.670;7.788;2024-01-15T07:19:04;1.60;98.60
11009;DHT22;5557;51.670;7.788;2024-01-15T07:21:31;1.60;99.20
11009;DHT22;5557;51.670;7.788;2024-01-15T07:23:58;1.60;99.50
11009;DHT22;5557;51.670;7.788;2024-01-15T07:26:25;1.60;99.60
11009;DHT22;5557;51.670;7.788;2024-01-15T07:28:52;1.60;99.50
11009;DHT22;5557;51.670;7.788;2024-01-15T07:31:20;1.60;99.90
11009;DHT22;5557;51.670;7.788;2024-01-15T07:33:50;1.50;99.90
11009;DHT22;5557;51.670;7.788;2024-01-15T07:36:18;1.50;99.90
11009;DHT22;5557;51.670;7.788;2024-01-15T07:38:45;1.50;99.90
11009;DHT22;5557;51.670;7.788;2024-01-15T07:41:13;1.50;99.90
11009;DHT22;5557;51.670;7.788;2024-01-15T07:43:40;1.50;99.90
11009;DHT22;5557;51.670;7.788;2024-01-15T07:46:07;1.50;99.90
11009;DHT22;5557;51.670;7.788;2024-01-15T07:48:35;1.50;99.90
11009;DHT22;5557;51.670;7.788;2024-01-15T07:51:02;1.50;99.90
11009;DHT22;5557;51.670;7.788;2024-01-15T07:53:30;1.50;99.90
11009;DHT22;5557;51.670;7.788;2024-01-15T07:55:57;1.50;99.90
11009;DHT22;5557;51.670;7.788;2024-01-15T07:58:25;1.50;99.90
11009;DHT22;5557;51.670;7.788;2024-01-15T08:00:52;1.60;99.90
11009;DHT22;5557;51.670;7.788;2024-01-15T08:03:19;1.60;99.90
11009;DHT22;5557;51.670;7.788;2024-01-15T08:05:46;1.60;99.90
11009;DHT22;5557;51.670;7.788;2024-01-15T08:08:14;1.60;99.90
11009;DHT22;5557;51.670;7.788;2024-01-15T08:10:40;1.60;99.90
11009;DHT22;5557;51.670;7.788;2024-01-15T08:13:07;1.60;99.90
11009;DHT22;5557;51.670;7.788;2024-01-15T08:15:36;1.60;99.90
11009;DHT22;5557;51.670;7.788;2024-01-15T08:18:03;1.50;99.90
11009;DHT22;5557;51.670;7.788;2024-01-15T08:20:30;1.50;99.90
11009;DHT22;5557;51.670;7.788;2024-01-15T08:22:57;1.40;99.90
11009;DHT22;5557;51.670;7.788;2024-01-15T08:25:25;1.40;99.90
11009;DHT22;5557;51.670;7.788;2024-01-15T08:27:52;1.30;99.90
11009;DHT22;5557;51.670;7.788;2024-01-15T08:30:19;1.30;99.90
11009;DHT22;5557;51.670;7.788;2024-01-15T08:32:48;1.20;99.90
11009;DHT22;5557;51.670;7.788;2024-01-15T08:35:16;1.20;99.90
11009;DHT22;5557;51.670;7.788;2024-01-15T08:37:43;1.20;99.90
11009;DHT22;5557;51.670;7.788;2024-01-15T08:40:11;1.10;99.90
11009;DHT22;5557;51.670;7.788;2024-01-15T08:42:38;1.00;99.90
11009;DHT22;5557;51.670;7.788;2024-01-15T08:45:05;1.00;99.90
11009;DHT22;5557;51.670;7.788;2024-01-15T08:47:32;0.90;99.90
11009;DHT22;5557;51.670;7.788;2024-01-15T08:49:59;1.00;99.90
11009;DHT22;5557;51.670;7.788;2024-01-15T08:52:27;1.00;99.90
11009;DHT22;5557;51.670;7.788;2024-01-15T08:54:55;1.00;99.90
11009;DHT22;5557;51.670;7.788;2024-01-15T08:57:22;1.00;99.90
11009;DHT22;5557;51.670;7.788;2024-01-15T08:59:49;1.00;99.90
11009;DHT22;5557;51.670;7.788;2024-01-15T09:02:16;1.00;99.90
11009;DHT22;5557;51.670;7.788;2024-01-15T09:04:43;1.10;99.90
11009;DHT22;5557;51.670;7.788;2024-01-15T09:07:10;1.10;99.90
11009;DHT22;5557;51.670;7.788;2024-01-15T09:09:37;1.20;99.90
11009;DHT22;5557;51.670;7.788;2024-01-15T09:12:04;1.20;99.90
11009;DHT22;5557;51.670;7.788;2024-01-15T09:14:31;1.20;99.90
11009;DHT22;5557;51.670;7.788;2024-01-15T09:17:04;1.20;99.90
11009;DHT22;5557;51.670;7.788;2024-01-15T09:19:31;1.30;99.90
11009;DHT22;5557;51.670;7.788;2024-01-15T09:21:59;1.30;99.90
11009;DHT22;5557;51.670;7.788;2024-01-15T09:24:26;1.40;99.90
11009;DHT22;5557;51.670;7.788;2024-01-15T09:26:55;1.40;99.90
11009;DHT22;5557;51.670;7.788;2024-01-15T09:29:22;1.40;99.90
11009;DHT22;5557;51.670;7.788;2024-01-15T09:31:51;1.40;99.90
11009;DHT22;5557;51.670;7.788;2024-01-15T09:34:21;1.40;99.90
11009;DHT22;5557;51.670;7.788;2024-01-15T09:36:50;1.40;99.90
11009;DHT22;5557;51.670;7.788;2024-01-15T09:39:17;1.50;99.90
11009;DHT22;5557;51.670;7.788;2024-01-15T09:41:45;1.50;99.90
11009;DHT22;5557;51.670;7.788;2024-01-15T09:44:14;1.50;99.90
11009;DHT22;5557;51.670;7.788;2024-01-15T09:46:42;1.50;99.90
11009;DHT22;5557;51.670;7.788;2024-01-15T09:49:11;1.50;99.90
11009;DHT22;5557;51.670;7.788;2024-01-15T09:51:39;1.50;99.90
11009;DHT22;5557;51.670;7.788;2024-01-15T09:54:07;1.60;99.90
11009;DHT22;5557;51.670;7.788;2024-01-15T09:56:35;1.60;99.90
11009;DHT22;5557;51.670;7.788;2024-01-15T09:59:02;1.60;99.90
11009;DHT22;5557;51.670;7.788;2024-01-15T10:01:32;1.60;99.90
11009;DHT22;5557;51.670;7.788;2024-01-15T10:04:03;1.60;99.90
11009;DHT22;5557;51.670;7.788;2024-01-15T10:06:30;1.60;99.90
11009;DHT22;5557;51.670;7.788;2024-01-15T10:08:58;1.60;99.90
11009;DHT22;5557;51.670;7.788;2024-01-15T10:11:25;1.70;99.90
11009;DHT22;5557;51.670;7.788;2024-01-15T10:13:52;1.70;99.90
11009;DHT22;5557;51.670;7.788;2024-01-15T10:16:23;1.70;99.90
11009;DHT22;5557;51.670;7.788;2024-01-15T10:18:51;1.70;99.90
11009;DHT22;5557;51.670;7.788;2024-01-15T10:21:18;1.70;99.90
11009;DHT22;5557;51.670;7.788;2024-01-15T10:23:45;1.70;99.90
11009;DHT22;5557;51.670;7.788;2024-01-15T10:26:13;1.70;99.90
11009;DHT22;5557;51.670;7.788;2024-01-15T10:28:50;1.70;99.90
11009;DHT22;5557;51.670;7.788;2024-01-15T10:31:19;1.70;99.90
11009;DHT22;5557;51.670;7.788;2024-01-15T10:36:23;1.70;99.90
11009;DHT22;5557;51.670;7.788;2024-01-15T10:39:01;1.70;99.90
11009;DHT22;5557;51.670;7.788;2024-01-15T10:41:30;1.70;99.90
11009;DHT22;5557;51.670;7.788;2024-01-15T10:43:57;1.60;99.90
11009;DHT22;5557;51.670;7.788;2024-01-15T10:46:25;1.60;99.90
11009;DHT22;5557;51.670;7.788;2024-01-15T10:48:52;1.70;99.90
11009;DHT22;5557;51.670;7.788;2024-01-15T10:51:20;1.70;99.90
11009;DHT22;5557;51.670;7.788;2024-01-15T10:53:48;1.70;99.90
11009;DHT22;5557;51.670;7.788;2024-01-15T10:56:15;1.70;99.90
11009;DHT22;5557;51.670;7.788;2024-01-15T10:58:44;1.80;99.90
11009;DHT22;5557;51.670;7.788;2024-01-15T11:01:13;1.80;99.90
11009;DHT22;5557;51.670;7.788;2024-01-15T11:03:40;1.90;99.90
11009;DHT22;5557;51.670;7.788;2024-01-15T11:06:28;2.00;99.90
11009;DHT22;5557;51.670;7.788;2024-01-15T11:09:07;1.90;99.90
11009;DHT22;5557;51.670;7.788;2024-01-15T11:11:36;1.80;99.80
11009;DHT22;5557;51.670;7.788;2024-01-15T11:14:06;1.90;99.90
11009;DHT22;5557;51.670;7.788;2024-01-15T11:16:56;1.90;98.80
11009;DHT22;5557;51.670;7.788;2024-01-15T11:19:23;1.90;97.20
11009;DHT22;5557;51.670;7.788;2024-01-15T11:21:50;1.80;96.60
11009;DHT22;5557;51.670;7.788;2024-01-15T11:24:40;1.80;94.80
11009;DHT22;5557;51.670;7.788;2024-01-15T11:27:08;1.80;95.20
11009;DHT22;5557;51.670;7.788;2024-01-15T11:29:36;1.90;93.50
11009;DHT22;5557;51.670;7.788;2024-01-15T11:32:10;1.90;91.70
11009;DHT22;5557;51.670;7.788;2024-01-15T11:34:59;1.90;87.90
11009;DHT22;5557;51.670;7.788;2024-01-15T11:43:11;2.20;79.50
11009;DHT22;5557;51.670;7.788;2024-01-15T11:45:40;2.20;72.60
11009;DHT22;5557;51.670;7.788;2024-01-15T11:48:15;2.20;74.10
11009;DHT22;5557;51.670;7.788;2024-01-15T11:50:48;2.30;74.50
11009;DHT22;5557;51.670;7.788;2024-01-15T11:53:36;2.20;66.20
11009;DHT22;5557;51.670;7.788;2024-01-15T11:56:09;2.20;67.90
11009;DHT22;5557;51.670;7.788;2024-01-15T11:58:38;2.20;68.60
11009;DHT22;5557;51.670;7.788;2024-01-15T12:01:05;2.20;66.60
11009;DHT22;5557;51.670;7.788;2024-01-15T12:03:33;2.10;63.10
11009;DHT22;5557;51.670;7.788;2024-01-15T12:06:06;2.10;63.80
11009;DHT22;5557;51.670;7.788;2024-01-15T12:08:34;2.10;61.80
11009;DHT22;5557;51.670;7.788;2024-01-15T12:11:07;2.00;58.80
11009;DHT22;5557;51.670;7.788;2024-01-15T12:13:37;2.00;57.70
11009;DHT22;5557;51.670;7.788;2024-01-15T12:16:04;2.00;58.60
11009;DHT22;5557;51.670;7.788;2024-01-15T12:18:32;2.00;55.30
11009;DHT22;5557;51.670;7.788;2024-01-15T12:20:59;2.00;55.10
11009;DHT22;5557;51.670;7.788;2024-01-15T12:23:26;2.00;54.80
11009;DHT22;5557;51.670;7.788;2024-01-15T12:25:54;2.00;50.80
11009;DHT22;5557;51.670;7.788;2024-01-15T12:28:22;2.00;49.40
11009;DHT22;5557;51.670;7.788;2024-01-15T12:30:49;2.10;50.80
11009;DHT22;5557;51.670;7.788;2024-01-15T12:33:18;2.10;52.40
11009;DHT22;5557;51.670;7.788;2024-01-15T12:35:47;2.10;50.50
11009;DHT22;5557;51.670;7.788;2024-01-15T12:38:15;2.20;50.70
11009;DHT22;5557;51.670;7.788;2024-01-15T12:40:43;2.20;49.10
11009;DHT22;5557;51.670;7.788;2024-01-15T12:43:13;2.30;47.80
11009;DHT22;5557;51.670;7.788;2024-01-15T12:45:40;2.40;47.20
11009;DHT22;5557;51.670;7.788;2024-01-15T12:48:08;2.30;45.80
11009;DHT22;5557;51.670;7.788;2024-01-15T12:50:35;2.30;45.00
11009;DHT22;5557;51.670;7.788;2024-01-15T12:53:03;2.30;45.50
11009;DHT22;5557;51.670;7.788;2024-01-15T12:55:30;2.30;43.70
11009;DHT22;5557;51.670;7.788;2024-01-15T12:57:57;2.30;42.70
11009;DHT22;5557;51.670;7.788;2024-01-15T13:00:24;2.30;44.30
11009;DHT22;5557;51.670;7.788;2024-01-15T13:02:53;2.30;42.60
11009;DHT22;5557;51.670;7.788;2024-01-15T13:05:22;2.20;41.10
11009;DHT22;5557;51.670;7.788;2024-01-15T13:07:50;2.20;43.80
11009;DHT22;5557;51.670;7.788;2024-01-15T13:10:17;2.20;40.50
11009;DHT22;5557;51.670;7.788;2024-01-15T13:12:44;2.20;40.10
11009;DHT22;5557;51.670;7.788;2024-01-15T13:15:12;2.20;38.80
11009;DHT22;5557;51.670;7.788;2024-01-15T13:17:41;2.30;38.80
11009;DHT22;5557;51.670;7.788;2024-01-15T13:20:09;2.30;37.30
11009;DHT22;5557;51.670;7.788;2024-01-15T13:22:38;2.30;34.40
11009;DHT22;5557;51.670;7.788;2024-01-15T13:25:07;2.40;32.60
11009;DHT22;5557;51.670;7.788;2024-01-15T13:27:35;2.40;34.30
11009;DHT22;5557;51.670;7.788;2024-01-15T13:30:08;2.40;35.20
11009;DHT22;5557;51.670;7.788;2024-01-15T13:32:36;2.40;36.70
11009;DHT22;5557;51.670;7.788;2024-01-15T13:35:07;2.30;41.80
11009;DHT22;5557;51.670;7.788;2024-01-15T13:37:37;2.20;48.40
11009;DHT22;5557;51.670;7.788;2024-01-15T13:40:11;2.20;51.30
11009;DHT22;5557;51.670;7.788;2024-01-15T13:42:46;2.20;55.40
11009;DHT22;5557;51.670;7.788;2024-01-15T13:45:14;2.20;56.50
11009;DHT22;5557;51.670;7.788;2024-01-15T13:47:42;2.20;56.90
11009;DHT22;5557;51.670;7.788;2024-01-15T13:50:10;2.20;56.00
11009;DHT22;5557;51.670;7.788;2024-01-15T13:52:37;2.20;55.40
11009;DHT22;5557;51.670;7.788;2024-01-15T13:55:05;2.20;53.20
11009;DHT22;5557;51.670;7.788;2024-01-15T13:57:33;2.30;52.20
11009;DHT22;5557;51.670;7.788;2024-01-15T14:00:00;2.30;51.40
11009;DHT22;5557;51.670;7.788;2024-01-15T14:02:27;2.40;49.80
11009;DHT22;5557;51.670;7.788;2024-01-15T14:04:54;2.40;44.50
11009;DHT22;5557;51.670;7.788;2024-01-15T14:07:21;2.40;43.30
11009;DHT22;5557;51.670;7.788;2024-01-15T14:09:48;2.40;39.60
11009;DHT22;5557;51.670;7.788;2024-01-15T14:12:15;2.40;40.20
11009;DHT22;5557;51.670;7.788;2024-01-15T14:14:42;2.40;38.10
11009;DHT22;5557;51.670;7.788;2024-01-15T14:17:09;2.40;38.80
11009;DHT22;5557;51.670;7.788;2024-01-15T14:19:36;2.40;35.50
11009;DHT22;5557;51.670;7.788;2024-01-15T14:22:04;2.40;35.50
11009;DHT22;5557;51.670;7.788;2024-01-15T14:24:31;2.30;36.20
11009;DHT22;5557;51.670;7.788;2024-01-15T14:26:58;2.30;37.60
11009;DHT22;5557;51.670;7.788;2024-01-15T14:29:25;2.30;37.90
11009;DHT22;5557;51.670;7.788;2024-01-15T14:31:54;2.20;38.70
11009;DHT22;5557;51.670;7.788;2024-01-15T14:34:24;2.20;38.30
11009;DHT22;5557;51.670;7.788;2024-01-15T14:36:54;2.20;36.90
11009;DHT22;5557;51.670;7.788;2024-01-15T14:39:22;2.20;36.60
11009;DHT22;5557;51.670;7.788;2024-01-15T14:41:50;2.20;35.00
11009;DHT22;5557;51.670;7.788;2024-01-15T14:44:17;2.20;35.50
11009;DHT22;5557;51.670;7.788;2024-01-15T14:46:44;2.20;36.80
11009;DHT22;5557;51.670;7.788;2024-01-15T14:49:13;2.20;35.90
11009;DHT22;5557;51.670;7.788;2024-01-15T14:51:41;2.20;36.40
11009;DHT22;5557;51.670;7.788;2024-01-15T14:54:09;2.30;37.20
11009;DHT22;5557;51.670;7.788;2024-01-15T14:56:36;2.30;38.10
11009;DHT22;5557;51.670;7.788;2024-01-15T14:59:03;2.30;37.90
11009;DHT22;5557;51.670;7.788;2024-01-15T15:01:30;2.30;37.90
11009;DHT22;5557;51.670;7.788;2024-01-15T15:03:57;2.30;39.50
11009;DHT22;5557;51.670;7.788;2024-01-15T15:06:24;2.30;41.20
11009;DHT22;5557;51.670;7.788;2024-01-15T15:08:54;2.20;45.60
11009;DHT22;5557;51.670;7.788;2024-01-15T15:11:27;2.10;50.20
11009;DHT22;5557;51.670;7.788;2024-01-15T15:13:54;2.00;57.70
11009;DHT22;5557;51.670;7.788;2024-01-15T15:16:21;1.90;63.50
11009;DHT22;5557;51.670;7.788;2024-01-15T15:18:48;1.90;70.00
11009;DHT22;5557;51.670;7.788;2024-01-15T15:21:15;1.80;73.90
11009;DHT22;5557;51.670;7.788;2024-01-15T15:23:43;1.80;73.20
11009;DHT22;5557;51.670;7.788;2024-01-15T15:26:10;1.80;72.80
11009;DHT22;5557;51.670;7.788;2024-01-15T15:28:40;1.80;74.90
11009;DHT22;5557;51.670;7.788;2024-01-15T15:31:11;1.70;78.20
11009;DHT22;5557;51.670;7.788;2024-01-15T15:36:14;1.60;83.80
11009;DHT22;5557;51.670;7.788;2024-01-15T15:38:42;1.60;84.40
11009;DHT22;5557;51.670;7.788;2024-01-15T15:41:09;1.60;85.00
11009;DHT22;5557;51.670;7.788;2024-01-15T15:43:36;1.60;83.60
11009;DHT22;5557;51.670;7.788;2024-01-15T15:46:06;1.70;81.10
11009;DHT22;5557;51.670;7.788;2024-01-15T15:48:35;1.70;78.20
11009;DHT22;5557;51.670;7.788;2024-01-15T15:51:02;1.50;78.70
11009;DHT22;5557;51.670;7.788;2024-01-15T15:53:30;1.40;87.20
11009;DHT22;5557;51.670;7.788;2024-01-15T15:55:57;1.30;92.30
11009;DHT22;5557;51.670;7.788;2024-01-15T15:58:25;1.20;94.10
11009;DHT22;5557;51.670;7.788;2024-01-15T16:00:52;1.20;95.30
11009;DHT22;5557;51.670;7.788;2024-01-15T16:03:19;1.30;95.50
11009;DHT22;5557;51.670;7.788;2024-01-15T16:05:46;1.40;94.00
11009;DHT22;5557;51.670;7.788;2024-01-15T16:08:19;1.40;91.20
11009;DHT22;5557;51.670;7.788;2024-01-15T16:10:47;1.40;84.00
11009;DHT22;5557;51.670;7.788;2024-01-15T16:13:19;1.40;80.80
11009;DHT22;5557;51.670;7.788;2024-01-15T16:15:46;1.40;77.50
11009;DHT22;5557;51.670;7.788;2024-01-15T16:18:14;1.40;76.10